Time;durP1;ratioP1;P1;durP2;ratioP2;P2;SDS_P1;SDS_P2;PMS_P1;PMS_P2;Temp;Humidity;BMP_temperature;BMP_pressure;BME280_temperature;BME280_humidity;BME280_pressure;Samples;Min_cycle;Max_cycle;Signal;HPM_P1;HPM_P2
2022/11/06 00:00:56;;;;;;;71.20;27.30;;;;;;;4.29;87.37;101155.44;106728;1254;138376;-66
2022/11/06 00:03:21;;;;;;;77.00;27.80;;;;;;;4.26;87.45;101151.05;106748;1238;96307;-66
2022/11/06 00:08:33;;;;;;;75.80;29.30;;;;;;;4.23;87.53;101157.77;106588;1250;138415;-65
2022/11/06 00:10:59;;;;;;;85.80;31.00;;;;;;;4.23;87.55;101160.09;106778;1251;98849;-65
2022/11/06 00:13:25;;;;;;;75.10;30.70;;;;;;;4.23;87.74;101161.33;106490;1240;138493;-65
2022/11/06 00:15:51;;;;;;;77.20;29.40;;;;;;;4.21;87.57;101169.11;106704;1253;96324;-67
2022/11/06 00:18:16;;;;;;;74.50;28.50;;;;;;;4.19;87.45;101171.96;106684;1246;138475;-65
2022/11/06 00:20:44;;;;;;;72.70;29.00;;;;;;;4.18;87.66;101177.64;106792;1254;96325;-65
2022/11/06 00:23:09;;;;;;;83.20;29.70;;;;;;;4.15;87.59;101175.19;106672;1256;96387;-65
2022/11/06 00:25:38;;;;;;;68.40;28.60;;;;;;;4.14;87.72;101172.73;106655;1257;138696;-65
2022/11/06 00:28:04;;;;;;;76.80;30.10;;;;;;;4.12;87.98;101168.50;106803;1246;109839;-65
2022/11/06 00:30:29;;;;;;;73.30;29.00;;;;;;;4.09;87.51;101173.84;106641;1246;138995;-65
2022/11/06 00:32:54;;;;;;;75.80;28.60;;;;;;;4.05;87.67;101172.98;106744;1254;96256;-65
2022/11/06 00:35:19;;;;;;;73.80;30.90;;;;;;;4.04;87.62;101166.62;106729;1249;96273;-65
2022/11/06 00:37:45;;;;;;;72.90;28.50;;;;;;;4.04;87.88;101162.38;106656;1247;140756;-66
2022/11/06 00:40:11;;;;;;;85.40;30.80;;;;;;;4.03;87.81;101162.73;106631;1251;96344;-66
2022/11/06 00:42:36;;;;;;;83.00;28.40;;;;;;;4.00;87.87;101166.65;106689;1252;138846;-66
2022/11/06 00:45:02;;;;;;;83.70;29.90;;;;;;;3.99;88.04;101167.54;106813;1250;96386;-66
2022/11/06 00:47:28;;;;;;;80.70;29.80;;;;;;;3.99;88.00;101166.84;106740;1248;95153;-66
2022/11/06 00:49:53;;;;;;;94.60;32.50;;;;;;;3.99;87.92;101168.08;106673;1246;138926;-66
2022/11/06 00:52:19;;;;;;;93.30;33.00;;;;;;;3.97;87.91;101168.98;106869;1254;96094;-66
2022/11/06 00:54:44;;;;;;;89.70;33.80;;;;;;;3.95;87.88;101168.99;106625;1251;138450;-66
2022/11/06 00:57:09;;;;;;;86.00;32.20;;;;;;;3.90;87.70;101167.27;106813;1238;96712;-66
2022/11/06 00:59:34;;;;;;;84.40;33.00;;;;;;;3.87;88.03;101169.22;106771;1232;96670;-66
2022/11/06 01:02:00;;;;;;;83.70;29.60;;;;;;;3.84;87.96;101165.89;106650;1246;139683;-66
2022/11/06 01:04:25;;;;;;;80.00;30.80;;;;;;;3.81;87.91;101167.33;106879;1238;96395;-66
2022/11/06 01:06:53;;;;;;;70.80;29.70;;;;;;;3.77;87.82;101166.66;106594;1238;140248;-66
2022/11/06 01:09:21;;;;;;;75.40;29.90;;;;;;;3.73;87.99;101161.73;106756;1248;96370;-66
2022/11/06 01:11:49;;;;;;;81.70;32.00;;;;;;;3.71;88.07;101168.98;106761;1245;96436;-66
2022/11/06 01:14:16;;;;;;;69.50;29.60;;;;;;;3.67;87.94;101170.78;106595;1246;138255;-66
2022/11/06 01:16:42;;;;;;;74.50;30.60;;;;;;;3.62;88.13;101170.13;106719;1251;96300;-66
2022/11/06 01:19:12;;;;;;;64.90;26.90;;;;;;;3.55;87.87;101172.27;106588;1238;138708;-66
2022/11/06 01:21:41;;;;;;;70.90;31.00;;;;;;;3.50;87.98;101168.42;106821;1246;96260;-66
2022/11/06 01:24:10;;;;;;;65.10;29.20;;;;;;;3.45;88.03;101169.15;106757;1240;96452;-66
2022/11/06 01:26:36;;;;;;;69.60;28.10;;;;;;;3.44;88.31;101170.05;106655;1239;138435;-66
2022/11/06 01:29:03;;;;;;;63.30;27.10;;;;;;;3.45;88.45;101171.80;106790;1253;95065;-64
2022/11/06 01:31:31;;;;;;;58.50;28.30;;;;;;;3.45;88.37;101173.23;106648;1254;138605;-64
2022/11/06 01:33:59;;;;;;;70.00;28.00;;;;;;;3.45;88.38;101169.34;106597;1248;96397;-65
2022/11/06 01:36:26;;;;;;;59.80;26.90;;;;;;;3.41;88.39;101165.30;106567;1254;139459;-65
2022/11/06 01:38:53;;;;;;;67.40;27.80;;;;;;;3.39;88.38;101164.61;106647;1248;96252;-64
2022/11/06 01:41:25;;;;;;;67.60;28.10;;;;;;;3.35;88.45;101165.34;106629;1254;96378;-65
2022/11/06 01:44:02;;;;;;;64.60;29.30;;;;;;;3.33;88.30;101160.40;106551;1238;138054;-65
2022/11/06 01:46:30;;;;;;;56.80;24.80;;;;;;;3.32;88.30;101165.16;106826;1241;96248;-65
2022/11/06 01:49:16;;;;;;;59.40;25.40;;;;;;;3.31;88.56;101168.36;106617;1254;140133;-66
2022/11/06 01:51:57;;;;;;;59.50;26.20;;;;;;;3.32;88.45;101163.94;106773;1242;109656;-65
2022/11/06 01:54:28;;;;;;;62.80;24.80;;;;;;;3.31;88.57;101163.77;106682;1247;140664;-65
2022/11/06 01:56:57;;;;;;;52.00;24.00;;;;;;;3.31;88.65;101166.59;106772;1247;107548;-65
2022/11/06 01:59:29;;;;;;;59.40;24.00;;;;;;;3.30;88.50;101168.71;106793;1250;96372;-65
2022/11/06 02:01:54;;;;;;;48.90;23.30;;;;;;;3.27;88.58;101168.55;106554;1254;138591;-66
2022/11/06 02:04:30;;;;;;;57.50;24.00;;;;;;;3.24;88.54;101166.45;106685;1238;98293;-65
2022/11/06 02:06:58;;;;;;;69.40;22.90;;;;;;;3.21;88.39;101164.88;106676;1246;139055;-65
2022/11/06 02:09:25;;;;;;;54.90;25.20;;;;;;;3.19;88.47;101165.95;106564;1238;107023;-65
2022/11/06 02:12:12;;;;;;;63.40;25.30;;;;;;;3.17;88.57;101168.61;106613;1246;96497;-64
2022/11/06 02:15:11;;;;;;;58.00;23.90;;;;;;;3.15;88.27;101162.96;106557;1239;138421;-65
2022/11/06 02:17:45;;;;;;;47.90;22.50;;;;;;;3.13;88.58;101162.44;106599;1246;110376;-64
2022/11/06 02:20:38;;;;;;;60.40;25.20;;;;;;;3.10;88.61;101164.75;106510;1250;139734;-64
2022/11/06 02:23:24;;;;;;;63.20;26.30;;;;;;;3.06;88.61;101163.19;106675;1238;107739;-65
2022/11/06 02:26:09;;;;;;;62.70;25.20;;;;;;;3.04;88.77;101165.13;106507;1254;138599;-64
2022/11/06 02:28:42;;;;;;;54.50;23.60;;;;;;;3.03;88.82;101164.78;106635;1247;96367;-64
2022/11/06 02:31:14;;;;;;;58.00;24.40;;;;;;;3.00;88.68;101156.67;106550;1254;138905;-64
2022/11/06 02:33:47;;;;;;;67.90;26.70;;;;;;;2.98;88.69;101153.69;106687;1245;101034;-65
2022/11/06 02:36:21;;;;;;;58.90;25.00;;;;;;;2.94;88.57;101149.81;106535;1245;139393;-65
2022/11/06 02:38:52;;;;;;;61.60;24.40;;;;;;;2.90;88.56;101153.89;106702;1246;96690;-64
2022/11/06 02:41:27;;;;;;;61.20;24.10;;;;;;;2.86;88.58;101157.96;106735;1246;96591;-64
2022/11/06 02:43:55;;;;;;;61.90;24.50;;;;;;;2.84;88.77;101162.39;106496;1246;139087;-64
2022/11/06 02:46:34;;;;;;;65.00;26.00;;;;;;;2.80;88.77;101168.05;106651;1245;99995;-64
2022/11/06 02:49:27;;;;;;;66.50;24.30;;;;;;;2.73;88.64;101164.19;106479;1247;139667;-65
2022/11/06 02:51:57;;;;;;;55.40;22.70;;;;;;;2.63;88.55;101164.21;106603;1247;96899;-65
2022/11/06 02:54:26;;;;;;;48.90;21.00;;;;;;;2.60;88.49;101165.30;106578;1247;139303;-65
2022/11/06 02:56:54;;;;;;;52.70;24.60;;;;;;;2.55;88.42;101161.80;106772;1240;110147;-64
2022/11/06 02:59:32;;;;;;;54.20;23.10;;;;;;;2.49;88.55;101159.17;106646;1238;98982;-64
2022/11/06 03:02:02;;;;;;;56.70;25.50;;;;;;;2.42;88.42;101161.83;106509;1246;138912;-65
2022/11/06 03:04:36;;;;;;;46.70;22.40;;;;;;;2.37;88.69;101165.37;106614;1246;95247;-65
2022/11/06 03:07:10;;;;;;;50.30;23.80;;;;;;;2.34;88.62;101164.84;106475;1240;138879;-65
2022/11/06 03:09:36;;;;;;;51.20;22.90;;;;;;;2.28;88.74;101168.55;106631;1238;108676;-65
2022/11/06 03:12:24;;;;;;;50.00;21.70;;;;;;;2.25;88.69;101169.79;106684;1246;97204;-65
2022/11/06 03:15:14;;;;;;;48.20;22.40;;;;;;;2.21;88.87;101172.61;106662;1246;107929;-64
2022/11/06 03:17:53;;;;;;;44.90;20.80;;;;;;;2.19;88.78;101168.91;106525;1232;96248;-64
2022/11/06 03:20:28;;;;;;;64.90;19.90;;;;;;;2.15;88.74;101170.49;106499;1255;138751;-65
2022/11/06 03:23:04;;;;;;;45.80;21.20;;;;;;;2.09;88.70;101168.57;106629;1238;110571;-65
2022/11/06 03:25:54;;;;;;;42.80;19.20;;;;;;;2.08;88.74;101163.63;106534;1254;138232;-65
2022/11/06 03:28:30;;;;;;;40.10;18.40;;;;;;;2.05;88.83;101162.22;106655;1240;107532;-65
2022/11/06 03:31:01;;;;;;;53.10;19.00;;;;;;;2.03;89.04;101161.52;106529;1249;138427;-65
2022/11/06 03:33:49;;;;;;;40.90;17.50;;;;;;;2.02;88.82;101162.92;106796;1244;96378;-66
2022/11/06 03:36:30;;;;;;;41.40;17.90;;;;;;;2.00;88.82;101167.16;106765;1255;109734;-66
2022/11/06 03:39:00;;;;;;;46.60;19.10;;;;;;;1.97;88.82;101166.27;106788;1254;99463;-65
2022/11/06 03:41:37;;;;;;;39.90;17.30;;;;;;;1.93;88.97;101171.56;106745;1246;107238;-65
2022/11/06 03:44:05;;;;;;;36.80;16.60;;;;;;;1.91;89.00;101166.10;106644;1240;141507;-66
2022/11/06 03:46:36;;;;;;;39.10;17.40;;;;;;;1.87;88.76;101169.63;106790;1246;96940;-65
2022/11/06 03:49:06;;;;;;;38.20;16.90;;;;;;;1.82;88.87;101167.15;106658;1248;142078;-65
2022/11/06 03:51:39;;;;;;;32.60;16.80;;;;;;;1.78;88.77;101168.56;106742;1242;100024;-65
2022/11/06 03:54:14;;;;;;;34.20;17.20;;;;;;;1.75;88.77;101169.61;106699;1246;107329;-65
2022/11/06 03:56:53;;;;;;;31.30;16.50;;;;;;;1.73;88.87;101171.55;106499;1238;140051;-65
2022/11/06 03:59:24;;;;;;;35.20;17.00;;;;;;;1.72;88.94;101175.77;106639;1246;97765;-65
2022/11/06 04:01:53;;;;;;;30.40;17.40;;;;;;;1.71;88.90;101173.83;106526;1239;142265;-65
2022/11/06 04:04:37;;;;;;;34.60;17.00;;;;;;;1.67;88.85;101170.13;106652;1240;100010;-65
2022/11/06 04:07:09;;;;;;;34.80;18.60;;;;;;;1.63;89.01;101165.19;106504;1239;141023;-64
2022/11/06 04:15:17;;;;;;;33.90;17.10;;;;;;;1.59;88.88;101162.90;106695;1254;109664;-65
2022/11/06 04:17:43;;;;;;;40.40;16.20;;;;;;;1.56;88.90;101161.14;106633;1246;99933;-64
2022/11/06 04:21:20;;;;;;;28.60;14.50;;;;;;;1.56;89.09;101157.08;106509;1238;140508;-64
2022/11/06 04:23:11;;;;;;;;;;;;;;;1.56;89.00;101153.20;106687;1246;96517;-64
2022/11/06 04:29:02;;;;;;;35.60;16.20;;;;;;;1.55;89.08;101148.10;106707;1254;112600;-64
2022/11/06 04:32:10;;;;;;;38.70;16.00;;;;;;;1.57;89.23;101155.67;106541;1254;141760;-65
2022/11/06 04:34:47;;;;;;;37.70;15.90;;;;;;;1.60;89.13;101154.27;106394;1249;107702;-66
2022/11/06 04:37:31;;;;;;;53.50;15.40;;;;;;;1.61;89.16;101157.79;106647;1246;142114;-65
2022/11/06 04:40:21;;;;;;;39.90;14.40;;;;;;;1.62;89.22;101154.27;106714;1246;99079;-65
2022/11/06 04:42:57;;;;;;;42.40;15.30;;;;;;;1.66;89.33;101151.27;106645;1254;141696;-65
2022/11/06 04:45:27;;;;;;;32.60;14.70;;;;;;;1.68;89.37;101150.77;106752;1246;99624;-65
2022/11/06 04:47:53;;;;;;;44.90;15.50;;;;;;;1.71;89.40;101147.41;106775;1246;108560;-65
2022/11/06 04:50:23;;;;;;;35.70;15.10;;;;;;;1.76;89.31;101149.88;106669;1240;140556;-65
2022/11/06 04:52:50;;;;;;;30.60;14.00;;;;;;;1.79;89.34;101143.89;106790;1246;99230;-65
2022/11/06 04:55:16;;;;;;;44.90;14.50;;;;;;;1.81;89.34;101143.71;106596;1246;142232;-65
2022/11/06 04:57:41;;;;;;;37.20;13.80;;;;;;;1.82;89.39;101141.08;106738;1246;97674;-65
2022/11/06 05:00:13;;;;;;;37.70;16.30;;;;;;;1.84;89.40;101137.55;106783;1246;97615;-66
2022/11/06 05:02:39;;;;;;;52.10;16.20;;;;;;;1.85;89.45;101143.19;106631;1238;141284;-65
2022/11/06 05:05:05;;;;;;;82.20;15.30;;;;;;;1.88;89.56;101141.77;106707;1240;97725;-65
2022/11/06 05:07:30;;;;;;;36.30;13.40;;;;;;;1.88;89.40;101143.55;106735;1246;140942;-65
2022/11/06 05:09:55;;;;;;;54.40;14.30;;;;;;;1.88;89.53;101143.71;106747;1246;97746;-65
2022/11/06 05:12:21;;;;;;;42.30;15.30;;;;;;;1.86;89.45;101144.77;106749;1246;97754;-65
2022/11/06 05:14:46;;;;;;;33.80;16.40;;;;;;;1.86;89.59;101147.06;106759;1232;140003;-65
2022/11/06 05:17:12;;;;;;;34.60;14.50;;;;;;;1.86;89.63;101148.65;106767;1246;97613;-64
2022/11/06 05:19:37;;;;;;;50.80;14.80;;;;;;;1.84;89.58;101149.36;106660;1247;141970;-66
2022/11/06 05:24:46;;;;;;;59.10;16.90;;;;;;;1.82;89.60;101149.00;106642;1254;143710;-66
2022/11/06 05:27:12;;;;;;;43.30;16.80;;;;;;;1.82;89.60;101151.65;106738;1241;97722;-66
2022/11/06 05:29:37;;;;;;;46.50;15.10;;;;;;;1.83;89.79;101151.12;106808;1246;97703;-66
2022/11/06 05:32:02;;;;;;;54.70;16.00;;;;;;;1.83;89.68;101150.23;106643;1238;143087;-66
2022/11/06 05:34:28;;;;;;;32.60;16.20;;;;;;;1.84;89.78;101147.24;106767;1249;97702;-66
2022/11/06 05:36:53;;;;;;;38.50;16.60;;;;;;;1.87;89.85;101145.13;106655;1246;140370;-66
2022/11/06 05:39:18;;;;;;;47.70;17.10;;;;;;;1.88;89.77;101147.06;106743;1246;97601;-66
2022/11/06 05:41:43;;;;;;;38.30;15.50;;;;;;;1.88;89.95;101149.01;106751;1238;97615;-66
2022/11/06 05:44:09;;;;;;;41.50;15.00;;;;;;;1.87;89.87;101148.30;106606;1254;139028;-66
2022/11/06 05:46:34;;;;;;;31.20;15.10;;;;;;;1.88;89.96;101148.83;106864;1246;97692;-67
2022/11/06 05:48:59;;;;;;;32.30;14.40;;;;;;;1.90;89.96;101150.23;106679;1233;140304;-66
2022/11/06 05:51:24;;;;;;;35.60;15.40;;;;;;;1.90;89.92;101150.95;106811;1240;97655;-66
2022/11/06 05:53:50;;;;;;;29.60;14.60;;;;;;;1.92;90.10;101149.70;106714;1231;98466;-66
2022/11/06 05:56:15;;;;;;;39.30;15.30;;;;;;;1.95;90.12;101143.36;106641;1238;140215;-66
2022/11/06 05:58:40;;;;;;;35.70;15.10;;;;;;;1.95;90.00;101143.89;106758;1232;97601;-66
2022/11/06 06:01:06;;;;;;;38.70;14.30;;;;;;;1.93;90.13;101146.19;106495;1246;140393;-66
2022/11/06 06:03:31;;;;;;;42.30;15.80;;;;;;;1.93;90.09;101153.05;106767;1239;97597;-67
2022/11/06 06:05:56;;;;;;;56.20;15.00;;;;;;;1.91;90.01;101155.88;106812;1239;98402;-66
2022/11/06 06:08:21;;;;;;;55.50;15.50;;;;;;;1.92;90.21;101154.64;106640;1246;141788;-66
2022/11/06 06:10:47;;;;;;;33.90;14.90;;;;;;;1.94;90.24;101153.77;106742;1246;97626;-66
2022/11/06 06:13:14;;;;;;;54.10;15.40;;;;;;;1.95;90.18;101156.40;106623;1238;138833;-66
2022/11/06 06:15:40;;;;;;;35.80;14.00;;;;;;;1.95;90.37;101159.93;106768;1238;97878;-66
2022/11/06 06:18:06;;;;;;;34.40;15.40;;;;;;;1.96;90.43;101160.27;106875;1246;97618;-66
2022/11/06 06:20:32;;;;;;;30.60;14.00;;;;;;;2.00;90.51;101162.05;106816;1246;139646;-66
2022/11/06 06:22:58;;;;;;;47.60;16.70;;;;;;;2.04;90.67;101162.75;106709;1246;96632;-66
2022/11/06 06:25:26;;;;;;;36.80;16.40;;;;;;;2.08;90.63;101162.39;106807;1232;140727;-66
2022/11/06 06:27:52;;;;;;;49.20;17.80;;;;;;;2.12;90.57;101166.27;106723;1254;107408;-67
2022/11/06 06:30:18;;;;;;;41.10;17.80;;;;;;;2.16;90.57;101166.45;106706;1246;98029;-66
2022/11/06 06:32:44;;;;;;;43.80;17.80;;;;;;;2.19;90.71;101168.38;106533;1240;139099;-66
2022/11/06 06:35:09;;;;;;;41.80;16.20;;;;;;;2.20;90.47;101173.49;106706;1232;97631;-66
2022/11/06 06:37:35;;;;;;;47.70;15.90;;;;;;;2.22;90.57;101176.84;106574;1236;140747;-66
2022/11/06 06:40:01;;;;;;;37.30;17.10;;;;;;;2.26;90.70;101174.02;107041;1238;97966;-67
2022/11/06 06:42:30;;;;;;;36.00;16.70;;;;;;;2.32;90.96;101179.48;106658;1237;141318;-66
2022/11/06 06:44:55;;;;;;;36.70;16.90;;;;;;;2.38;90.90;101179.64;106688;1238;99522;-66
2022/11/06 06:47:21;;;;;;;41.20;20.30;;;;;;;2.44;91.00;101178.05;106737;1238;100857;-70
2022/11/06 06:49:46;;;;;;;33.70;16.70;;;;;;;2.50;91.03;101179.09;106612;1232;140660;-67
2022/11/06 06:52:11;;;;;;;39.90;16.70;;;;;;;2.53;91.04;101179.27;106744;1252;97763;-66
2022/11/06 06:54:37;;;;;;;41.40;17.20;;;;;;;2.56;91.10;101181.55;106639;1246;138897;-66
2022/11/06 06:57:06;;;;;;;37.10;16.00;;;;;;;2.58;91.13;101179.26;106766;1238;97616;-66
2022/11/06 06:59:31;;;;;;;35.30;16.20;;;;;;;2.58;91.01;101179.61;106599;1238;97608;-67
2022/11/06 07:01:56;;;;;;;38.30;17.50;;;;;;;2.60;91.08;101177.46;106327;1231;140126;-66
2022/11/06 07:04:22;;;;;;;37.30;16.60;;;;;;;2.65;91.19;101175.15;106545;1239;97615;-67
2022/11/06 07:06:48;;;;;;;35.30;16.90;;;;;;;2.67;91.15;101177.61;106321;1240;142289;-66
2022/11/06 07:09:13;;;;;;;34.30;15.10;;;;;;;2.68;91.14;101174.79;106553;1239;97672;-66
2022/11/06 07:11:38;;;;;;;36.90;16.00;;;;;;;2.70;91.25;101177.08;106579;1232;97743;-67
2022/11/06 07:14:04;;;;;;;35.40;17.30;;;;;;;2.76;91.29;101185.17;106363;1239;140494;-67
2022/11/06 07:16:31;;;;;;;39.40;16.00;;;;;;;2.82;91.28;101183.92;106562;1232;98501;-66
2022/11/06 07:18:57;;;;;;;36.50;15.60;;;;;;;2.87;91.42;101184.08;106421;1238;141685;-66
2022/11/06 07:21:22;;;;;;;39.30;15.30;;;;;;;2.92;91.65;101183.89;106747;1231;99025;-67
2022/11/06 07:23:48;;;;;;;37.70;15.70;;;;;;;2.98;91.79;101189.34;106465;1242;97792;-66
2022/11/06 07:26:13;;;;;;;34.00;16.10;;;;;;;3.05;91.70;101188.79;106307;1239;141221;-66
2022/11/06 07:28:38;;;;;;;36.40;15.40;;;;;;;3.10;91.78;101185.77;106485;1240;97979;-64
2022/11/06 07:31:06;;;;;;;40.70;16.20;;;;;;;3.15;91.54;101183.27;106494;1238;140522;-66
2022/11/06 07:33:32;;;;;;;34.90;15.80;;;;;;;3.19;91.70;101187.85;106531;1231;99292;-67
2022/11/06 07:36:06;;;;;;;35.20;16.90;;;;;;;3.21;91.79;101184.13;106454;1232;98107;-66
2022/11/06 07:38:33;;;;;;;39.00;17.60;;;;;;;3.23;91.75;101181.47;106440;1248;142032;-66
2022/11/06 07:41:25;;;;;;;44.40;19.00;;;;;;;3.28;91.93;101183.39;106452;1232;99350;-65
2022/11/06 07:43:50;;;;;;;39.60;18.00;;;;;;;3.31;91.93;101185.48;106376;1232;139634;-65
2022/11/06 07:46:16;;;;;;;34.60;18.10;;;;;;;3.35;92.05;101192.19;106493;1246;97602;-65
2022/11/06 07:48:41;;;;;;;46.90;19.90;;;;;;;3.39;91.84;101191.11;106434;1238;139917;-65
2022/11/06 07:51:09;;;;;;;45.10;19.80;;;;;;;3.42;91.95;101186.84;106525;1238;97706;-65
2022/11/06 07:53:35;;;;;;;41.90;20.60;;;;;;;3.47;92.09;101184.34;106491;1230;97624;-66
2022/11/06 07:56:01;;;;;;;39.30;19.00;;;;;;;3.50;92.06;101187.16;106468;1243;138351;-65
2022/11/06 07:58:27;;;;;;;40.40;18.80;;;;;;;3.52;92.02;101184.30;106533;1238;97652;-65
2022/11/06 08:00:55;;;;;;;38.70;18.80;;;;;;;3.54;92.17;101186.07;106374;1237;140616;-65
2022/11/06 08:03:21;;;;;;;36.80;17.00;;;;;;;3.54;92.28;101185.17;106382;1238;109310;-66
2022/11/06 08:05:47;;;;;;;37.70;17.50;;;;;;;3.54;92.19;101180.59;106569;1239;98136;-68
2022/11/06 08:08:13;;;;;;;39.10;17.20;;;;;;;3.57;92.09;101178.45;106696;1243;138364;-65
2022/11/06 08:10:42;;;;;;;33.00;16.10;;;;;;;3.62;92.13;101178.78;106593;1246;99075;-65
2022/11/06 08:13:12;;;;;;;28.40;15.40;;;;;;;3.68;92.34;101177.33;106479;1248;139158;-65
2022/11/06 08:15:39;;;;;;;33.00;15.50;;;;;;;3.75;92.46;101182.22;106539;1231;98594;-66
2022/11/06 08:18:06;;;;;;;34.40;17.70;;;;;;;3.83;92.48;101182.16;106449;1232;97619;-65
2022/11/06 08:20:33;;;;;;;39.20;17.10;;;;;;;3.90;92.62;101184.23;108516;1241;139008;-66
2022/11/06 08:23:03;;;;;;;30.60;16.20;;;;;;;3.98;92.60;101180.47;108550;1247;95938;-66
2022/11/06 08:25:29;;;;;;;33.80;15.30;;;;;;;4.05;92.65;101178.98;106740;1239;138323;-66
2022/11/06 08:27:59;;;;;;;28.20;14.40;;;;;;;4.16;92.75;101187.03;106455;1238;97729;-67
2022/11/06 08:30:26;;;;;;;33.60;16.10;;;;;;;4.28;92.93;101185.86;106446;1239;97720;-66
2022/11/06 08:32:52;;;;;;;24.20;12.50;;;;;;;4.39;92.98;101184.70;106477;1239;97580;-66
2022/11/06 08:35:18;;;;;;;27.30;13.20;;;;;;;4.50;93.11;101183.71;106505;1236;97639;-66
2022/11/06 08:37:43;;;;;;;29.80;14.70;;;;;;;4.58;92.81;101180.09;106367;1239;138327;-65
2022/11/06 08:40:10;;;;;;;25.30;13.00;;;;;;;4.67;93.01;101181.77;106531;1240;97714;-65
2022/11/06 08:42:35;;;;;;;37.90;13.80;;;;;;;4.77;92.94;101186.27;106410;1238;139198;-65
2022/11/06 08:45:01;;;;;;;32.30;15.40;;;;;;;4.88;93.17;101180.64;106564;1236;97845;-65
2022/11/06 08:47:26;;;;;;;22.70;12.90;;;;;;;4.99;93.13;101178.58;106631;1254;97743;-62
2022/11/06 08:49:51;;;;;;;30.30;15.10;;;;;;;5.08;93.05;101175.09;106503;1238;139895;-63
2022/11/06 08:52:16;;;;;;;26.40;13.90;;;;;;;5.16;93.14;101173.04;106641;1239;97815;-64
2022/11/06 08:54:42;;;;;;;28.80;14.50;;;;;;;5.24;93.22;101173.09;106521;1246;139702;-63
2022/11/06 08:57:07;;;;;;;25.00;12.50;;;;;;;5.32;93.08;101170.85;106736;1236;97666;-62
2022/11/06 08:59:32;;;;;;;24.50;13.70;;;;;;;5.40;93.27;101171.63;106625;1246;97856;-63
2022/11/06 09:01:58;;;;;;;25.00;13.20;;;;;;;5.48;93.31;101170.81;106564;1232;138831;-62
2022/11/06 09:04:24;;;;;;;33.90;14.50;;;;;;;5.58;93.43;101166.60;106562;1233;99518;-65
2022/11/06 09:06:49;;;;;;;28.30;15.10;;;;;;;5.68;93.50;101162.02;106462;1250;139614;-64
2022/11/06 09:09:14;;;;;;;29.90;13.40;;;;;;;5.77;93.36;101168.44;106628;1232;97623;-64
2022/11/06 09:11:40;;;;;;;31.60;13.20;;;;;;;5.84;93.39;101163.71;106571;1239;97616;-65
2022/11/06 09:14:05;;;;;;;30.70;12.30;;;;;;;5.90;93.38;101163.82;106588;1238;139874;-64
2022/11/06 09:16:30;;;;;;;27.00;13.00;;;;;;;5.98;93.38;101164.77;106630;1240;97564;-64
2022/11/06 09:18:56;;;;;;;33.60;12.30;;;;;;;6.05;93.41;101166.42;106452;1236;139042;-65
2022/11/06 09:21:22;;;;;;;25.70;12.20;;;;;;;6.12;93.35;101163.83;106580;1239;97722;-65
2022/11/06 09:23:48;;;;;;;24.30;12.20;;;;;;;6.20;93.39;101164.75;106663;1238;97696;-63
2022/11/06 09:26:14;;;;;;;28.50;12.70;;;;;;;6.30;93.39;101164.05;106541;1232;138945;-63
2022/11/06 09:28:39;;;;;;;33.40;12.60;;;;;;;6.41;93.59;101158.17;106604;1238;107668;-65
2022/11/06 09:31:05;;;;;;;25.50;12.40;;;;;;;6.52;93.54;101154.41;106644;1238;139036;-65
2022/11/06 09:33:30;;;;;;;37.00;13.50;;;;;;;6.63;93.60;101154.21;106834;1248;97736;-65
2022/11/06 09:35:56;;;;;;;31.80;12.70;;;;;;;6.74;93.68;101155.05;106743;1238;97725;-66
2022/11/06 09:38:21;;;;;;;24.50;12.90;;;;;;;6.87;93.69;101146.27;106677;1246;140326;-64
2022/11/06 09:41:01;;;;;;;26.50;12.80;;;;;;;6.97;93.62;101148.39;106852;1230;97444;-63
2022/11/06 09:43:32;;;;;;;26.70;11.50;;;;;;;7.04;93.56;101146.64;106743;1246;141134;-63
2022/11/06 09:46:24;;;;;;;21.10;10.70;;;;;;;7.11;93.70;101142.75;106780;1239;100460;-64
2022/11/06 09:48:56;;;;;;;21.90;10.90;;;;;;;7.20;93.57;101146.83;106625;1230;139288;-63
2022/11/06 09:51:51;;;;;;;23.80;10.20;;;;;;;7.31;93.55;101144.30;106769;1231;97607;-65
2022/11/06 09:54:27;;;;;;;25.80;10.80;;;;;;;7.42;93.62;101140.48;106785;1232;96076;-63
2022/11/06 09:57:09;;;;;;;25.50;11.30;;;;;;;7.52;93.58;101143.80;106675;1239;111073;-63
2022/11/06 09:59:37;;;;;;;33.00;12.60;;;;;;;7.64;93.60;101141.02;106702;1238;100283;-64
2022/11/06 10:02:19;;;;;;;30.80;14.30;;;;;;;7.76;93.59;101137.02;106661;1246;140766;-65
2022/11/06 10:05:00;;;;;;;29.60;13.10;;;;;;;7.86;93.38;101129.48;106800;1237;97632;-64
2022/11/06 10:07:42;;;;;;;24.60;12.40;;;;;;;7.95;93.50;101129.41;106639;1237;138500;-64
2022/11/06 10:10:18;;;;;;;31.30;12.90;;;;;;;8.06;93.61;101123.60;106892;1255;110674;-64
2022/11/06 10:13:09;;;;;;;32.00;12.40;;;;;;;8.15;93.42;101118.59;106694;1238;139615;-64
2022/11/06 10:15:57;;;;;;;29.90;12.90;;;;;;;8.32;93.71;101115.48;106756;1248;107316;-64
2022/11/06 10:18:37;;;;;;;29.20;12.40;;;;;;;8.45;93.44;101107.48;106872;1239;99070;-64
2022/11/06 10:21:19;;;;;;;29.10;13.20;;;;;;;8.56;93.45;101102.73;106906;1245;97588;-64
2022/11/06 10:23:54;;;;;;;32.40;12.70;;;;;;;8.65;93.30;101104.95;106855;1245;111123;-64
2022/11/06 10:26:44;;;;;;;28.50;11.80;;;;;;;8.71;93.17;101099.98;106770;1245;139247;-64
2022/11/06 10:29:10;;;;;;;48.20;20.60;;;;;;;8.78;93.11;101099.42;106865;1238;107529;-65
2022/11/06 10:32:08;;;;;;;24.70;10.50;;;;;;;8.88;93.12;101094.51;106739;1246;139478;-65
2022/11/06 10:34:43;;;;;;;20.80;8.90;;;;;;;8.96;92.98;101094.98;106827;1245;98279;-65
2022/11/06 10:37:49;;;;;;;23.30;8.70;;;;;;;8.97;92.80;101092.46;106782;1235;138652;-66
2022/11/06 10:40:21;;;;;;;23.90;10.20;;;;;;;9.04;92.95;101081.73;106812;1229;99466;-66
2022/11/06 10:43:07;;;;;;;20.90;10.20;;;;;;;9.10;92.85;101077.80;106817;1253;139380;-66
2022/11/06 10:45:38;;;;;;;18.20;9.50;;;;;;;9.20;92.61;101076.42;106836;1239;96429;-66
2022/11/06 10:48:26;;;;;;;22.70;9.60;;;;;;;9.26;92.59;101074.10;106918;1239;97624;-67
2022/11/06 10:51:10;;;;;;;22.40;9.60;;;;;;;9.30;92.52;101070.76;106711;1237;138225;-68
2022/11/06 10:53:40;;;;;;;15.70;7.80;;;;;;;9.31;92.38;101063.59;106821;1240;98899;-68
2022/11/06 10:56:21;;;;;;;19.00;8.20;;;;;;;9.36;92.37;101054.89;106716;1244;138216;-66
2022/11/06 10:58:46;;;;;;;20.00;8.10;;;;;;;9.39;92.20;101052.98;106827;1233;97712;-67
2022/11/06 11:01:13;;;;;;;18.10;8.60;;;;;;;9.44;92.20;101049.27;106704;1245;139875;-68
2022/11/06 11:03:41;;;;;;;21.40;9.10;;;;;;;9.49;92.00;101048.95;106825;1237;98137;-67
2022/11/06 11:06:07;;;;;;;18.50;7.60;;;;;;;9.51;91.76;101041.20;106806;1238;98083;-68
2022/11/06 11:08:41;;;;;;;18.50;7.40;;;;;;;9.56;91.77;101044.79;106710;1239;138950;-66
2022/11/06 11:11:12;;;;;;;15.10;7.00;;;;;;;9.61;91.73;101042.11;106822;1238;97679;-66
2022/11/06 11:13:38;;;;;;;26.70;7.90;;;;;;;9.62;91.39;101041.38;106663;1240;138226;-67
2022/11/06 11:16:13;;;;;;;14.00;7.40;;;;;;;9.61;91.36;101038.54;106786;1243;96489;-67
2022/11/06 11:18:38;;;;;;;16.30;7.60;;;;;;;9.65;91.25;101033.05;106556;1236;139792;-69
2022/11/06 11:21:12;;;;;;;17.80;7.20;;;;;;;9.71;91.28;101025.02;106763;1240;97688;-65
2022/11/06 11:23:38;;;;;;;18.10;7.40;;;;;;;9.76;91.12;101025.90;106819;1244;97826;-65
2022/11/06 11:26:20;;;;;;;14.80;7.10;;;;;;;9.84;90.79;101025.09;106675;1246;138363;-66
2022/11/06 11:29:00;;;;;;;16.60;7.90;;;;;;;9.90;90.78;101018.46;106817;1244;99475;-68
2022/11/06 11:31:35;;;;;;;16.00;7.40;;;;;;;9.93;90.58;101015.33;106675;1236;139316;-66
2022/11/06 11:34:04;;;;;;;15.70;7.60;;;;;;;9.94;90.48;101009.03;106773;1236;97664;-65
2022/11/06 11:36:56;;;;;;;19.90;6.90;;;;;;;10.00;90.40;101010.77;106758;1240;98285;-65